Time;durP1;ratioP1;P1;durP2;ratioP2;P2;SDS_P1;SDS_P2;PMS_P1;PMS_P2;Temp;Humidity;BMP_temperature;BMP_pressure;BME280_temperature;BME280_humidity;BME280_pressure;Samples;Min_cycle;Max_cycle;Signal;HPM_P1;HPM_P2
2021/11/12 00:02:09;;;;;;;65.03;37.80;;;4.90;99.90;;;;;;5035837;28;20208;-68
2021/11/12 00:04:24;;;;;;;61.92;35.75;;;5.20;99.90;;;;;;5035629;28;20203;-67
2021/11/12 00:12:26;;;;;;;59.40;34.40;;;5.00;99.90;;;;;;5035344;28;20194;-68
2021/11/12 00:14:55;;;;;;;56.50;33.55;;;5.10;99.90;;;;;;5035153;28;20232;-68
2021/11/12 00:17:26;;;;;;;61.13;35.65;;;5.10;99.90;;;;;;5034892;28;20717;-68
2021/11/12 00:19:53;;;;;;;63.08;35.55;;;5.20;99.90;;;;;;5035220;28;20212;-68
2021/11/12 00:22:22;;;;;;;56.03;32.60;;;5.30;99.90;;;;;;5035251;28;20571;-68
2021/11/12 00:24:50;;;;;;;58.03;33.70;;;5.20;99.90;;;;;;5034995;28;20235;-68
2021/11/12 00:27:16;;;;;;;57.90;31.95;;;5.30;99.90;;;;;;5035345;28;20231;-68
2021/11/12 00:29:46;;;;;;;53.10;31.13;;;5.50;99.90;;;;;;5035125;28;20204;-68
2021/11/12 00:32:24;;;;;;;57.97;33.53;;;5.50;99.90;;;;;;5035109;28;20289;-68
2021/11/12 00:37:53;;;;;;;78.72;35.10;;;5.50;99.90;;;;;;5031028;28;20694;-68
2021/11/12 00:40:24;;;;;;;56.17;33.60;;;5.40;99.90;;;;;;5034954;28;20551;-68
2021/11/12 00:43:08;;;;;;;61.10;34.25;;;5.30;99.90;;;;;;5034515;28;20243;-68
2021/11/12 00:45:42;;;;;;;81.75;35.30;;;5.30;99.90;;;;;;5034514;28;20204;-68
2021/11/12 00:48:14;;;;;;;69.53;34.85;;;5.10;99.90;;;;;;5034721;28;20242;-68
2021/11/12 00:50:59;;;;;;;64.25;33.10;;;5.10;99.90;;;;;;5034567;28;20208;-68
2021/11/12 00:56:10;;;;;;;50.65;30.10;;;5.00;99.90;;;;;;5034149;28;20227;-68
2021/11/12 00:58:37;;;;;;;54.78;30.90;;;5.10;99.90;;;;;;5034584;28;20290;-68
2021/11/12 01:01:05;;;;;;;47.88;27.67;;;4.90;99.90;;;;;;5034325;28;20744;-68
2021/11/12 01:03:34;;;;;;;43.10;28.08;;;4.90;99.90;;;;;;5034444;28;20204;-68
2021/11/12 01:06:01;;;;;;;42.10;27.88;;;5.00;99.90;;;;;;5033931;28;20200;-68
2021/11/12 01:08:28;;;;;;;44.67;27.35;;;5.00;99.90;;;;;;5034043;28;20208;-68
2021/11/12 01:10:56;;;;;;;57.55;28.70;;;5.10;99.90;;;;;;5034048;28;20695;-68
2021/11/12 01:13:24;;;;;;;49.70;27.58;;;5.00;99.90;;;;;;5034290;28;20226;-68
2021/11/12 01:15:51;;;;;;;46.88;27.80;;;4.90;99.90;;;;;;5033758;28;20593;-68
2021/11/12 01:18:18;;;;;;;49.10;27.27;;;4.80;99.90;;;;;;5034228;28;20646;-68
2021/11/12 01:20:47;;;;;;;48.05;27.70;;;4.80;99.90;;;;;;5034124;28;20234;-68
2021/11/12 01:23:14;;;;;;;50.33;28.55;;;4.80;99.90;;;;;;5034150;28;20200;-68
2021/11/12 01:25:42;;;;;;;52.13;29.42;;;4.80;99.90;;;;;;5033943;28;20559;-68
2021/11/12 01:28:09;;;;;;;45.35;28.50;;;4.70;99.90;;;;;;5034000;28;20227;-68
2021/11/12 01:30:36;;;;;;;52.78;30.50;;;4.70;99.90;;;;;;5033922;28;20200;-68
2021/11/12 01:33:03;;;;;;;50.00;29.95;;;4.70;99.90;;;;;;5033888;28;20208;-68
2021/11/12 01:35:31;;;;;;;53.90;31.17;;;4.50;99.90;;;;;;5033513;28;20710;-68
2021/11/12 01:37:59;;;;;;;55.83;31.60;;;4.70;99.90;;;;;;5033845;28;20246;-67
2021/11/12 01:40:28;;;;;;;53.25;30.77;;;4.70;99.90;;;;;;5033853;28;20250;-68
2021/11/12 01:43:07;;;;;;;55.25;31.10;;;4.80;99.90;;;;;;5033755;28;20334;-68
2021/11/12 01:45:45;;;;;;;49.83;28.80;;;4.80;99.90;;;;;;5033514;28;20646;-68
2021/11/12 01:48:22;;;;;;;49.28;28.75;;;4.70;99.90;;;;;;5033780;28;20587;-68
2021/11/12 01:50:54;;;;;;;52.30;31.38;;;4.70;99.90;;;;;;5034266;28;20203;-68
2021/11/12 01:53:32;;;;;;;47.45;29.30;;;4.60;99.90;;;;;;5033723;28;20278;-68
2021/11/12 01:56:24;;;;;;;53.10;29.23;;;4.70;99.90;;;;;;5032671;28;20226;-68
2021/11/12 01:59:05;;;;;;;53.22;30.15;;;4.90;99.90;;;;;;5033432;28;20208;-68
2021/11/12 02:01:38;;;;;;;62.45;31.25;;;4.80;99.90;;;;;;5033612;28;20204;-68
2021/11/12 02:04:07;;;;;;;48.20;29.85;;;4.70;99.90;;;;;;5033580;28;20300;-68
2021/11/12 02:06:34;;;;;;;49.45;29.33;;;4.70;99.90;;;;;;5033052;28;20567;-67
2021/11/12 02:09:09;;;;;;;49.25;30.65;;;4.80;99.90;;;;;;5033255;28;20212;-68
2021/11/12 02:11:36;;;;;;;54.65;31.13;;;4.80;99.90;;;;;;5033502;28;20289;-68
2021/11/12 02:14:04;;;;;;;51.17;30.25;;;4.90;99.90;;;;;;5033445;28;20629;-68
2021/11/12 02:16:35;;;;;;;73.60;31.40;;;4.90;99.90;;;;;;5032993;28;20228;-68
2021/11/12 02:19:05;;;;;;;49.67;29.27;;;4.80;99.90;;;;;;5033172;28;20189;-68
2021/11/12 02:21:37;;;;;;;55.25;30.75;;;4.80;99.90;;;;;;5033350;28;20623;-67
2021/11/12 02:24:06;;;;;;;49.83;30.45;;;4.90;99.90;;;;;;5033418;28;20223;-68
2021/11/12 02:26:35;;;;;;;51.35;30.05;;;5.00;99.90;;;;;;5033042;28;20269;-67
2021/11/12 02:29:05;;;;;;;59.40;30.65;;;5.00;99.90;;;;;;5033368;28;20201;-67
2021/11/12 02:31:32;;;;;;;56.28;29.90;;;4.90;99.90;;;;;;5033349;28;20208;-68
2021/11/12 02:34:04;;;;;;;65.63;32.40;;;4.90;99.90;;;;;;5033308;28;20210;-68
2021/11/12 02:36:31;;;;;;;54.20;30.70;;;4.90;99.90;;;;;;5032978;28;20228;-67
2021/11/12 02:39:00;;;;;;;57.55;32.30;;;4.70;99.90;;;;;;5033255;28;20200;-67
2021/11/12 02:41:27;;;;;;;60.65;32.60;;;4.70;99.90;;;;;;5033176;28;20589;-68
2021/11/12 02:43:54;;;;;;;62.35;34.28;;;4.60;99.90;;;;;;5033214;28;20208;-67
2021/11/12 02:46:25;;;;;;;66.03;34.72;;;4.50;99.90;;;;;;5032693;28;20223;-68
2021/11/12 02:48:52;;;;;;;57.42;33.55;;;4.60;99.90;;;;;;5033251;28;20291;-68
2021/11/12 02:51:25;;;;;;;55.92;32.33;;;4.80;99.90;;;;;;5033125;28;20332;-67
2021/11/12 02:53:52;;;;;;;59.60;32.85;;;4.90;99.90;;;;;;5033162;28;20262;-67
2021/11/12 02:56:26;;;;;;;48.10;30.80;;;5.00;99.90;;;;;;5032774;28;20596;-68
2021/11/12 02:58:55;;;;;;;53.47;29.70;;;5.00;99.90;;;;;;5033086;28;20217;-68
2021/11/12 03:01:24;;;;;;;54.15;30.95;;;5.00;99.90;;;;;;5032809;28;20255;-68
2021/11/12 03:03:52;;;;;;;52.17;30.75;;;5.10;99.90;;;;;;5033036;28;20287;-68
2021/11/12 03:06:19;;;;;;;46.35;28.17;;;5.10;99.90;;;;;;5034657;28;20216;-67
2021/11/12 03:08:46;;;;;;;49.17;28.75;;;5.20;99.90;;;;;;5036670;28;20204;-67
2021/11/12 03:11:13;;;;;;;49.15;30.10;;;5.20;99.90;;;;;;5036480;28;20290;-68
2021/11/12 03:13:41;;;;;;;55.20;31.45;;;5.20;99.90;;;;;;5036326;28;20848;-68
2021/11/12 03:16:10;;;;;;;58.80;32.25;;;5.20;99.90;;;;;;5035953;28;20234;-68
2021/11/12 03:18:37;;;;;;;59.03;31.38;;;5.20;99.90;;;;;;5036174;28;20729;-68
2021/11/12 03:21:04;;;;;;;53.75;31.10;;;5.20;99.90;;;;;;5036371;28;20604;-67
2021/11/12 03:23:37;;;;;;;59.72;30.50;;;5.20;99.90;;;;;;5036313;28;20200;-68
2021/11/12 03:26:15;;;;;;;111.95;34.80;;;5.10;99.90;;;;;;5035845;28;20255;-67
2021/11/12 04:01:54;;;;;;;107.65;32.65;;;4.90;99.90;;;;;;5035850;28;20696;-68
2021/11/12 04:04:35;;;;;;;212.05;38.80;;;4.90;99.90;;;;;;5035357;28;20294;-69
2021/11/12 04:07:11;;;;;;;159.02;39.67;;;4.50;99.90;;;;;;5035513;28;20220;-67
2021/11/12 04:20:52;;;;;;;45.92;27.95;;;4.60;99.90;;;;;;5031826;28;20197;-68
2021/11/12 05:10:07;;;;;;;45.33;27.77;;;4.60;99.90;;;;;;5034197;28;20192;-67
2021/11/12 05:35:09;;;;;;;44.88;27.05;;;4.20;99.90;;;;;;5033878;28;20215;-68
2021/11/12 05:46:13;;;;;;;46.08;27.42;;;4.00;99.90;;;;;;5033620;28;20203;-68
2021/11/12 05:51:30;;;;;;;40.28;26.60;;;4.30;99.90;;;;;;5034071;28;20203;-67
2021/11/12 05:56:43;;;;;;;44.55;26.52;;;4.20;99.90;;;;;;5033323;28;20305;-68
2021/11/12 05:59:12;;;;;;;41.05;24.80;;;4.30;99.90;;;;;;5033364;28;20208;-68
2021/11/12 06:01:39;;;;;;;41.38;25.75;;;4.30;99.90;;;;;;5033566;28;20265;-68
2021/11/12 06:04:07;;;;;;;38.03;24.70;;;4.30;99.90;;;;;;5033487;28;20200;-68
2021/11/12 06:06:34;;;;;;;41.47;26.13;;;4.40;99.90;;;;;;5033046;28;20224;-68
2021/11/12 06:09:01;;;;;;;40.17;25.33;;;4.50;99.90;;;;;;5033699;28;20294;-68
2021/11/12 06:11:28;;;;;;;43.38;25.65;;;4.50;99.90;;;;;;5033444;28;20204;-68
2021/11/12 06:13:58;;;;;;;38.65;23.92;;;4.50;99.90;;;;;;5033408;28;20745;-67
2021/11/12 06:16:25;;;;;;;42.30;25.23;;;4.60;99.90;;;;;;5032994;28;20354;-68
2021/11/12 06:18:52;;;;;;;43.65;25.33;;;4.60;99.90;;;;;;5033134;28;20242;-68
2021/11/12 06:21:19;;;;;;;42.60;25.77;;;4.50;99.90;;;;;;5033387;28;20300;-67
2021/11/12 06:23:46;;;;;;;42.58;27.80;;;4.60;99.90;;;;;;5033488;28;20204;-68
2021/11/12 06:26:13;;;;;;;43.67;26.17;;;4.70;99.90;;;;;;5033138;28;20286;-68
2021/11/12 06:28:40;;;;;;;39.50;25.50;;;4.80;99.90;;;;;;5033641;28;20204;-67
2021/11/12 06:31:09;;;;;;;39.53;25.33;;;4.80;99.90;;;;;;5033332;28;20298;-68
2021/11/12 06:33:36;;;;;;;39.53;25.70;;;4.80;99.90;;;;;;5033362;28;20208;-67
2021/11/12 06:36:03;;;;;;;38.58;25.67;;;4.80;99.90;;;;;;5033009;28;20559;-68
2021/11/12 06:38:31;;;;;;;37.05;25.75;;;4.80;99.90;;;;;;5033074;28;20206;-68
2021/11/12 06:41:02;;;;;;;38.28;25.65;;;4.90;99.90;;;;;;5034700;28;20227;-68
2021/11/12 06:43:32;;;;;;;37.17;25.25;;;4.90;99.90;;;;;;5037125;28;20768;-68
2021/11/12 06:51:30;;;;;;;45.95;28.25;;;4.30;99.90;;;;;;5037331;28;20234;-68
2021/11/12 06:53:57;;;;;;;41.45;27.75;;;4.30;99.90;;;;;;5036895;28;20235;-67
2021/11/12 06:56:24;;;;;;;45.38;27.65;;;4.40;99.90;;;;;;5036309;28;20286;-67
2021/11/12 06:58:52;;;;;;;43.90;27.15;;;4.40;99.90;;;;;;5036756;28;20299;-68
2021/11/12 07:01:19;;;;;;;42.80;26.52;;;4.30;99.90;;;;;;5036759;28;20200;-68
2021/11/12 07:03:47;;;;;;;45.53;27.80;;;4.00;99.90;;;;;;5036762;28;20206;-68
2021/11/12 07:06:14;;;;;;;43.60;26.48;;;4.00;99.90;;;;;;5036458;28;20206;-68
2021/11/12 07:08:41;;;;;;;38.35;25.38;;;4.10;99.90;;;;;;5036612;28;20204;-69
2021/11/12 07:11:09;;;;;;;41.15;26.77;;;4.30;99.90;;;;;;5036392;28;20658;-68
2021/11/12 07:13:36;;;;;;;40.28;27.27;;;4.50;99.90;;;;;;5036534;28;20208;-68
2021/11/12 07:16:04;;;;;;;41.10;27.33;;;4.60;99.90;;;;;;5036074;28;20247;-69
2021/11/12 07:18:31;;;;;;;39.10;25.33;;;4.80;99.90;;;;;;5036870;28;20199;-68
2021/11/12 07:21:00;;;;;;;39.22;26.20;;;4.90;99.90;;;;;;5036265;28;20204;-68
2021/11/12 07:23:27;;;;;;;37.13;25.15;;;5.00;99.90;;;;;;5036338;28;20214;-67
2021/11/12 07:25:55;;;;;;;48.80;25.10;;;5.00;99.90;;;;;;5035961;28;20239;-68
2021/11/12 07:28:24;;;;;;;37.85;24.13;;;5.00;99.90;;;;;;5036320;28;20226;-68
2021/11/12 07:30:52;;;;;;;41.10;25.88;;;4.90;99.90;;;;;;5036297;28;20212;-67
2021/11/12 07:33:19;;;;;;;42.33;28.30;;;5.00;99.90;;;;;;5036164;28;20258;-68
2021/11/12 07:35:49;;;;;;;45.92;27.85;;;5.10;99.90;;;;;;5035815;28;20215;-68
2021/11/12 07:38:22;;;;;;;41.33;27.00;;;5.10;99.90;;;;;;5036065;28;20228;-68
2021/11/12 07:41:11;;;;;;;42.35;26.58;;;5.10;99.90;;;;;;5035893;28;20204;-68
2021/11/12 07:46:33;;;;;;;43.15;27.00;;;4.60;99.90;;;;;;5035625;28;20215;-68
2021/11/12 07:49:00;;;;;;;45.05;28.13;;;4.50;99.90;;;;;;5035675;28;20211;-68
2021/11/12 07:51:27;;;;;;;46.92;29.23;;;4.40;99.90;;;;;;5035810;28;20578;-67
2021/11/12 07:53:57;;;;;;;45.05;28.13;;;4.40;99.90;;;;;;5035078;28;20236;-68
2021/11/12 07:56:24;;;;;;;43.72;28.90;;;4.50;99.90;;;;;;5035396;28;20235;-68
2021/11/12 07:58:51;;;;;;;44.63;27.48;;;4.60;99.90;;;;;;5035729;28;20215;-68
2021/11/12 08:01:19;;;;;;;41.65;27.45;;;4.80;99.90;;;;;;5035456;28;20721;-68
2021/11/12 08:03:49;;;;;;;45.50;28.10;;;4.90;99.90;;;;;;5035614;28;20212;-68
2021/11/12 08:06:17;;;;;;;44.95;29.00;;;5.00;99.90;;;;;;5035330;28;20215;-68
2021/11/12 08:08:49;;;;;;;42.47;27.25;;;5.00;99.90;;;;;;5035864;28;20204;-68
2021/11/12 08:11:20;;;;;;;44.80;28.33;;;5.00;99.90;;;;;;5035224;28;20254;-68
2021/11/12 08:13:53;;;;;;;42.15;27.65;;;4.70;99.90;;;;;;5035475;28;20254;-68
2021/11/12 08:16:31;;;;;;;47.92;29.27;;;4.70;99.90;;;;;;5034901;28;20353;-68
2021/11/12 08:19:00;;;;;;;45.72;28.90;;;4.80;99.90;;;;;;5035429;28;20188;-68
2021/11/12 08:21:34;;;;;;;45.95;29.27;;;4.90;99.90;;;;;;5035281;28;20298;-69
2021/11/12 08:24:06;;;;;;;42.03;27.08;;;5.00;99.90;;;;;;5035311;28;20212;-68
2021/11/12 08:26:44;;;;;;;45.45;28.67;;;5.10;99.90;;;;;;5035006;28;20224;-68
2021/11/12 08:32:13;;;;;;;40.13;27.20;;;5.20;99.90;;;;;;5035145;28;20192;-69
2021/11/12 08:34:51;;;;;;;43.20;26.20;;;5.30;99.90;;;;;;5034709;28;20673;-68
2021/11/12 08:37:26;;;;;;;40.05;26.48;;;5.40;99.90;;;;;;5034964;28;20238;-68
2021/11/12 08:40:03;;;;;;;40.55;26.02;;;5.50;99.90;;;;;;5034992;28;20230;-68
2021/11/12 08:42:35;;;;;;;35.63;25.20;;;5.60;99.90;;;;;;5034932;28;20565;-68
2021/11/12 08:45:06;;;;;;;37.78;26.30;;;5.60;99.90;;;;;;5034724;28;20299;-68
2021/11/12 08:47:35;;;;;;;38.53;25.42;;;5.60;99.90;;;;;;5034847;28;20223;-68
2021/11/12 08:50:04;;;;;;;34.15;24.95;;;5.60;99.90;;;;;;5034742;28;20214;-68
2021/11/12 08:52:31;;;;;;;38.13;26.02;;;5.70;99.90;;;;;;5034754;28;20200;-67
2021/11/12 08:55:03;;;;;;;36.17;24.40;;;5.80;99.90;;;;;;5034418;28;20235;-68
2021/11/12 08:57:31;;;;;;;37.97;26.48;;;5.60;99.90;;;;;;5034592;28;20220;-67
2021/11/12 08:59:58;;;;;;;36.50;26.20;;;5.70;99.90;;;;;;5034550;28;20286;-68
2021/11/12 09:02:27;;;;;;;38.85;26.65;;;5.60;99.90;;;;;;5034523;28;20200;-68
2021/11/12 09:04:55;;;;;;;39.03;27.15;;;5.50;99.90;;;;;;5034080;28;20204;-68
2021/11/12 09:07:21;;;;;;;38.60;26.55;;;5.50;99.90;;;;;;5034162;28;20219;-68
2021/11/12 09:09:50;;;;;;;39.42;27.27;;;5.70;99.90;;;;;;5034418;28;20200;-68
2021/11/12 09:12:19;;;;;;;39.55;27.35;;;5.80;99.90;;;;;;5034329;28;20259;-68
2021/11/12 09:14:48;;;;;;;36.90;26.77;;;5.80;99.90;;;;;;5034104;28;20212;-68
2021/11/12 09:17:16;;;;;;;37.25;26.13;;;5.90;99.90;;;;;;5034046;28;20239;-68
2021/11/12 09:19:48;;;;;;;44.85;29.55;;;5.90;99.90;;;;;;5034302;28;20200;-68
2021/11/12 09:22:17;;;;;;;42.15;27.58;;;5.90;99.90;;;;;;5034169;28;20251;-68
2021/11/12 09:24:44;;;;;;;43.28;27.13;;;5.90;99.90;;;;;;5033971;28;20207;-68
2021/11/12 09:27:11;;;;;;;38.90;26.90;;;6.00;99.90;;;;;;5033989;28;20224;-68
2021/11/12 09:29:38;;;;;;;40.25;27.20;;;6.00;99.90;;;;;;5034061;28;20208;-68
2021/11/12 09:32:08;;;;;;;43.17;27.85;;;5.80;99.90;;;;;;5033999;28;20230;-68
2021/11/12 09:34:37;;;;;;;39.78;28.38;;;5.70;99.90;;;;;;5033780;28;20204;-68
2021/11/12 09:37:05;;;;;;;40.17;27.38;;;5.70;99.90;;;;;;5033778;28;20227;-68
2021/11/12 09:39:33;;;;;;;38.13;27.88;;;5.60;99.90;;;;;;5033888;28;20200;-68
2021/11/12 09:42:00;;;;;;;39.85;27.35;;;5.80;99.90;;;;;;5033826;28;20204;-68
2021/11/12 09:44:27;;;;;;;41.78;28.63;;;5.60;99.90;;;;;;5033767;28;20211;-69
2021/11/12 09:46:55;;;;;;;37.35;27.20;;;5.70;99.90;;;;;;5033716;28;20263;-69
2021/11/12 09:49:23;;;;;;;38.97;28.40;;;5.80;99.90;;;;;;5033740;28;20211;-68
2021/11/12 09:51:50;;;;;;;39.22;28.75;;;5.90;99.90;;;;;;5033510;28;20208;-68
2021/11/12 09:54:18;;;;;;;38.22;28.63;;;5.90;99.90;;;;;;5033495;28;20204;-68
2021/11/12 09:56:45;;;;;;;36.42;27.38;;;6.00;99.90;;;;;;5033341;28;20315;-69
2021/11/12 09:59:13;;;;;;;41.97;28.13;;;6.10;99.90;;;;;;5033665;28;20208;-68
2021/11/12 10:01:40;;;;;;;36.92;27.27;;;6.20;99.90;;;;;;5033548;28;20232;-68
2021/11/12 10:04:09;;;;;;;37.33;26.98;;;6.20;99.90;;;;;;5033550;28;20200;-67
2021/11/12 10:06:41;;;;;;;38.65;27.13;;;6.20;99.90;;;;;;5033049;28;20231;-68
2021/11/12 10:09:16;;;;;;;40.08;27.75;;;6.30;99.90;;;;;;5033620;28;20188;-68
2021/11/12 10:11:49;;;;;;;35.88;26.38;;;6.50;99.90;;;;;;5033570;28;20213;-68
2021/11/12 10:14:24;;;;;;;41.40;28.15;;;6.60;99.90;;;;;;5033434;28;20223;-68
2021/11/12 10:16:57;;;;;;;39.65;27.15;;;6.60;99.90;;;;;;5036422;28;20593;-68
2021/11/12 10:19:25;;;;;;;41.63;28.05;;;6.60;99.90;;;;;;5037680;28;20297;-68
2021/11/12 10:21:55;;;;;;;43.75;28.98;;;6.60;99.90;;;;;;5037579;28;20208;-67
2021/11/12 10:24:26;;;;;;;44.65;28.95;;;6.60;99.90;;;;;;5037342;28;20222;-69
2021/11/12 10:26:55;;;;;;;43.60;29.67;;;6.40;99.90;;;;;;5037565;28;20573;-68
2021/11/12 10:29:27;;;;;;;40.25;29.98;;;6.30;99.90;;;;;;5037225;28;20246;-68
2021/11/12 10:31:57;;;;;;;45.00;30.15;;;6.20;99.90;;;;;;5037398;28;20231;-68
2021/11/12 10:34:25;;;;;;;46.80;31.88;;;6.10;99.90;;;;;;5037028;28;20666;-69
2021/11/12 10:37:01;;;;;;;47.65;31.80;;;5.70;99.90;;;;;;5037005;28;20223;-68
2021/11/12 10:39:31;;;;;;;40.88;28.95;;;5.70;99.90;;;;;;5037416;28;20289;-68
2021/11/12 10:42:00;;;;;;;46.95;32.40;;;5.80;99.90;;;;;;5037433;28;20303;-68
2021/11/12 10:44:28;;;;;;;41.45;28.67;;;5.80;99.90;;;;;;5036923;28;20211;-69
2021/11/12 10:46:55;;;;;;;47.97;31.80;;;6.00;99.90;;;;;;5036920;28;20256;-68
2021/11/12 10:49:27;;;;;;;55.92;34.65;;;5.90;99.90;;;;;;5036978;28;20666;-69
2021/11/12 10:51:57;;;;;;;47.63;31.92;;;5.80;99.90;;;;;;5037024;28;20569;-68
2021/11/12 10:54:45;;;;;;;49.97;31.17;;;5.70;99.90;;;;;;5036761;28;20205;-69
2021/11/12 10:57:13;;;;;;;48.10;31.00;;;6.10;99.90;;;;;;5036771;28;20315;-68
2021/11/12 11:00:17;;;;;;;49.08;31.27;;;6.20;99.90;;;;;;5036876;28;20204;-68
2021/11/12 11:02:46;;;;;;;43.90;31.70;;;6.40;99.90;;;;;;5021711;28;20215;-68
2021/11/12 11:05:15;;;;;;;42.70;29.55;;;6.60;99.90;;;;;;5036454;28;20240;-68
2021/11/12 11:07:47;;;;;;;42.90;29.65;;;6.80;99.90;;;;;;5036954;28;20311;-68
2021/11/12 11:10:27;;;;;;;41.25;29.42;;;7.10;99.90;;;;;;5036629;28;20204;-68
2021/11/12 11:12:55;;;;;;;40.88;29.13;;;7.10;99.90;;;;;;5036440;28;20654;-68
2021/11/12 11:15:28;;;;;;;44.50;28.73;;;7.20;99.90;;;;;;5036900;28;20619;-68
2021/11/12 11:18:18;;;;;;;41.80;29.92;;;7.30;99.90;;;;;;5036104;28;20242;-68
2021/11/12 11:20:45;;;;;;;45.47;31.02;;;7.30;99.90;;;;;;5036491;28;20212;-68
2021/11/12 11:23:13;;;;;;;44.88;32.90;;;7.40;99.90;;;;;;5036383;28;20204;-68
2021/11/12 11:25:50;;;;;;;45.80;32.97;;;7.40;99.90;;;;;;5036381;28;20200;-68
2021/11/12 11:28:18;;;;;;;42.55;31.38;;;7.50;99.90;;;;;;5036308;28;20223;-68
2021/11/12 11:30:47;;;;;;;48.40;31.63;;;7.60;99.90;;;;;;5036278;28;20250;-68
2021/11/12 11:33:15;;;;;;;43.45;30.73;;;7.70;99.90;;;;;;5036085;28;20243;-68
2021/11/12 11:35:45;;;;;;;45.65;32.33;;;7.70;99.90;;;;;;5035935;28;20208;-68
2021/11/12 11:38:17;;;;;;;42.75;31.73;;;7.70;99.90;;;;;;5036053;28;20585;-68
2021/11/12 11:40:49;;;;;;;50.38;34.38;;;7.60;99.90;;;;;;5036080;28;20214;-68
2021/11/12 11:43:17;;;;;;;43.70;31.65;;;7.40;99.90;;;;;;5035900;28;20214;-68
2021/11/12 11:45:45;;;;;;;45.08;32.03;;;7.50;99.90;;;;;;5035465;28;20756;-68
2021/11/12 11:48:16;;;;;;;46.63;32.85;;;7.60;99.90;;;;;;5037013;28;20224;-68
2021/11/12 11:50:51;;;;;;;46.80;33.80;;;7.60;99.90;;;;;;5035959;28;20210;-68
2021/11/12 11:53:32;;;;;;;46.10;32.97;;;7.20;99.90;;;;;;5035750;28;20204;-68
2021/11/12 11:56:23;;;;;;;46.95;32.75;;;6.90;99.90;;;;;;5035349;28;20200;-68
2021/11/12 11:58:52;;;;;;;46.58;33.13;;;6.90;99.90;;;;;;5035515;28;20263;-68
2021/11/12 12:01:35;;;;;;;49.72;35.08;;;7.10;99.90;;;;;;5035839;28;20208;-68
2021/11/12 12:04:36;;;;;;;50.88;33.92;;;7.30;99.90;;;;;;5035924;28;20204;-68
2021/11/12 12:07:21;;;;;;;49.22;35.78;;;7.40;99.90;;;;;;5035616;28;20227;-69
2021/11/12 12:09:53;;;;;;;50.83;34.25;;;7.30;99.90;;;;;;5035425;28;20208;-68
2021/11/12 12:12:43;;;;;;;49.53;34.25;;;7.30;99.90;;;;;;5035568;28;20211;-68
2021/11/12 12:15:42;;;;;;;49.75;34.17;;;7.40;99.90;;;;;;5035211;28;20230;-68
2021/11/12 12:18:26;;;;;;;50.45;35.05;;;7.60;99.90;;;;;;5035349;28;20228;-68
2021/11/12 13:20:21;;;;;;;55.45;36.38;;;7.80;99.90;;;;;;5034117;28;20258;-68
2021/11/12 13:22:56;;;;;;;56.78;37.13;;;7.50;99.90;;;;;;5034066;28;20208;-68
2021/11/12 13:25:35;;;;;;;57.15;36.75;;;7.30;99.90;;;;;;5034013;28;20265;-68
2021/11/12 13:28:10;;;;;;;56.60;36.53;;;7.40;99.90;;;;;;5034103;28;20224;-68
2021/11/12 13:30:39;;;;;;;57.83;37.65;;;7.40;99.90;;;;;;5034078;28;20665;-68
2021/11/12 13:33:23;;;;;;;58.03;37.90;;;7.60;99.90;;;;;;5034006;28;20210;-68
2021/11/12 13:35:50;;;;;;;57.17;37.00;;;7.60;99.90;;;;;;5033515;28;20207;-68
2021/11/12 13:38:17;;;;;;;58.78;39.63;;;7.40;99.90;;;;;;5033455;28;20322;-68
2021/11/12 13:40:44;;;;;;;63.17;43.85;;;7.20;99.90;;;;;;5033919;28;20204;-68
2021/11/12 13:43:22;;;;;;;70.78;42.63;;;6.50;99.90;;;;;;5033853;28;20199;-67
2021/11/12 13:45:56;;;;;;;70.95;40.97;;;6.00;99.90;;;;;;5033432;28;20749;-67
2021/11/12 13:48:23;;;;;;;60.50;38.40;;;6.10;99.90;;;;;;5033785;28;20233;-68
2021/11/12 13:50:54;;;;;;;64.20;40.13;;;6.20;99.90;;;;;;5032866;28;20295;-68
2021/11/12 13:53:24;;;;;;;60.95;39.80;;;6.30;99.90;;;;;;5033691;28;20214;-68
2021/11/12 13:55:51;;;;;;;61.95;38.47;;;6.50;99.90;;;;;;5033499;28;20210;-68
2021/11/12 13:58:21;;;;;;;61.65;38.35;;;6.50;99.90;;;;;;5033578;28;20319;-68
2021/11/12 14:00:48;;;;;;;57.30;36.80;;;6.60;99.90;;;;;;5033589;28;20239;-68
2021/11/12 14:03:19;;;;;;;57.00;36.63;;;6.80;99.90;;;;;;5033842;28;20204;-68
2021/11/12 14:05:57;;;;;;;56.03;37.03;;;7.00;99.90;;;;;;5033491;28;20204;-68
2021/11/12 14:08:32;;;;;;;60.97;37.88;;;7.10;99.90;;;;;;5033571;28;20589;-68
2021/11/12 14:11:00;;;;;;;60.22;36.63;;;6.90;99.90;;;;;;5033393;28;20210;-68
2021/11/12 14:13:36;;;;;;;59.13;36.85;;;6.80;99.90;;;;;;5033507;28;20258;-67
2021/11/12 14:16:10;;;;;;;60.90;36.97;;;6.60;99.90;;;;;;5033408;28;20218;-68
2021/11/12 14:18:49;;;;;;;60.30;36.90;;;6.80;99.90;;;;;;5033510;28;20218;-68
2021/11/12 14:21:22;;;;;;;66.22;37.72;;;6.80;99.90;;;;;;5033492;28;20215;-68
2021/11/12 14:23:53;;;;;;;58.05;38.58;;;6.70;99.90;;;;;;5033339;28;20204;-68
2021/11/12 14:26:28;;;;;;;59.25;36.63;;;6.60;99.90;;;;;;5032857;28;20200;-68
2021/11/12 14:28:58;;;;;;;60.35;37.65;;;6.50;99.90;;;;;;5033401;28;20200;-68
2021/11/12 14:34:25;;;;;;;62.72;37.50;;;6.30;99.90;;;;;;5033211;28;20200;-67
2021/11/12 14:36:56;;;;;;;64.25;40.33;;;6.20;99.90;;;;;;5033496;28;20227;-68
2021/11/12 14:45:18;;;;;;;67.18;40.00;;;5.90;99.90;;;;;;5033041;28;20279;-68
2021/11/12 14:47:56;;;;;;;68.70;40.17;;;6.00;99.90;;;;;;5032924;28;20710;-68
2021/11/12 14:50:41;;;;;;;71.07;43.60;;;5.80;99.90;;;;;;5033189;28;20559;-68
2021/11/12 14:53:20;;;;;;;69.25;37.85;;;5.70;99.90;;;;;;5033144;28;20239;-68
2021/11/12 14:55:52;;;;;;;75.95;40.35;;;5.60;99.90;;;;;;5033029;28;20204;-68
2021/11/12 14:58:20;;;;;;;66.38;39.65;;;5.40;99.90;;;;;;5033022;28;20581;-67
2021/11/12 15:00:48;;;;;;;64.50;38.85;;;5.40;99.90;;;;;;5032929;28;20258;-67
2021/11/12 15:03:15;;;;;;;61.95;38.72;;;5.30;99.90;;;;;;5036483;28;20226;-67
2021/11/12 15:05:43;;;;;;;69.78;38.15;;;5.20;99.90;;;;;;5036583;28;20212;-68
2021/11/12 15:08:18;;;;;;;65.78;36.75;;;5.10;99.90;;;;;;5036708;28;20651;-67
2021/11/12 15:10:46;;;;;;;62.50;37.05;;;5.00;99.90;;;;;;5036783;28;20203;-67
2021/11/12 15:13:14;;;;;;;63.72;34.78;;;5.10;99.90;;;;;;5036484;28;20204;-68
2021/11/12 15:15:41;;;;;;;59.78;35.40;;;5.20;99.90;;;;;;5036405;28;20204;-69
2021/11/12 15:18:08;;;;;;;52.92;32.13;;;5.30;99.90;;;;;;5036386;28;20274;-68
2021/11/12 15:20:37;;;;;;;51.55;32.28;;;5.50;99.90;;;;;;5036453;28;20662;-67
2021/11/12 15:26:03;;;;;;;53.22;31.15;;;5.40;99.90;;;;;;5036388;28;20270;-68
2021/11/12 15:28:46;;;;;;;55.60;31.27;;;5.20;99.90;;;;;;5036135;28;20191;-68
2021/11/12 15:31:17;;;;;;;51.50;29.13;;;5.40;99.90;;;;;;5036567;28;20208;-68
2021/11/12 15:33:45;;;;;;;47.40;28.02;;;5.50;99.90;;;;;;5036311;28;20223;-68
2021/11/12 15:36:15;;;;;;;46.15;30.17;;;5.60;99.90;;;;;;5035805;28;20212;-68
2021/11/12 15:38:48;;;;;;;48.92;29.58;;;5.70;99.90;;;;;;5036152;28;20220;-68
2021/11/12 15:41:25;;;;;;;46.63;28.88;;;5.60;99.90;;;;;;5035933;28;20208;-67
2021/11/12 15:43:56;;;;;;;56.05;31.35;;;5.50;99.90;;;;;;5036097;28;20207;-67
2021/11/12 15:46:24;;;;;;;54.45;30.17;;;5.00;99.90;;;;;;5035849;28;20710;-68
2021/11/12 15:48:52;;;;;;;51.97;30.80;;;4.90;99.90;;;;;;5036037;28;20265;-67
2021/11/12 15:51:35;;;;;;;60.13;33.95;;;5.00;99.90;;;;;;5035818;28;20692;-68
2021/11/12 15:57:12;;;;;;;54.97;30.58;;;4.80;99.90;;;;;;5024983;28;20220;-68
2021/11/12 16:00:01;;;;;;;60.28;33.88;;;4.70;99.90;;;;;;5035808;28;20211;-68
2021/11/12 16:08:10;;;;;;;65.20;32.67;;;4.80;99.90;;;;;;5035643;28;20625;-68
2021/11/12 16:13:24;;;;;;;55.33;30.35;;;4.70;99.90;;;;;;5034159;28;20714;-68
2021/11/12 16:18:51;;;;;;;52.88;30.92;;;5.10;99.90;;;;;;5035137;28;20208;-67
2021/11/12 16:21:51;;;;;;;48.10;29.30;;;5.20;99.90;;;;;;5035558;28;20208;-68
2021/11/12 16:27:19;;;;;;;54.20;28.13;;;5.40;99.90;;;;;;5035113;28;20303;-67
2021/11/12 16:29:48;;;;;;;47.72;29.60;;;5.50;99.90;;;;;;5035237;28;20291;-68
2021/11/12 16:32:27;;;;;;;49.58;28.42;;;5.60;99.90;;;;;;5035177;28;20208;-67
2021/11/12 16:34:58;;;;;;;46.15;27.17;;;5.60;99.90;;;;;;5034913;28;20208;-67
2021/11/12 16:37:26;;;;;;;112.30;30.52;;;5.70;99.90;;;;;;5034804;28;20709;-68
2021/11/12 16:39:57;;;;;;;55.38;29.45;;;5.60;99.90;;;;;;5034662;28;20713;-67
2021/11/12 16:42:41;;;;;;;91.70;30.45;;;5.40;99.90;;;;;;5035048;28;20250;-67
2021/11/12 16:45:13;;;;;;;45.28;27.45;;;5.40;99.90;;;;;;5034760;28;20212;-68
2021/11/12 16:47:56;;;;;;;53.33;28.23;;;5.50;99.90;;;;;;5034801;28;20320;-67
2021/11/12 16:50:37;;;;;;;46.28;26.85;;;5.50;99.90;;;;;;5034911;28;20298;-67
2021/11/12 16:53:20;;;;;;;54.05;28.55;;;5.30;99.90;;;;;;5034823;28;20581;-67
2021/11/12 16:58:41;;;;;;;52.25;29.02;;;5.50;99.90;;;;;;5030638;28;20220;-67